sensor_id;sensor_type;location;lat;lon;timestamp;pressure;altitude;pressure_sealevel;temperature;humidity
52361;BME280;38294;42.966;1.608;2023-02-14T04:03:48;98513.59;;;1.95;76.84
52361;BME280;38294;42.966;1.608;2023-02-14T04:06:18;98514.38;;;2.10;75.19
52361;BME280;38294;42.966;1.608;2023-02-14T04:08:44;98515.97;;;2.32;73.59
52361;BME280;38294;42.966;1.608;2023-02-14T04:11:10;98514.84;;;2.48;73.93
52361;BME280;38294;42.966;1.608;2023-02-14T04:13:36;98520.72;;;2.60;73.26
52361;BME280;38294;42.966;1.608;2023-02-14T04:16:02;98518.00;;;2.70;73.59
52361;BME280;38294;42.966;1.608;2023-02-14T04:18:28;98522.31;;;2.66;73.54
52361;BME280;38294;42.966;1.608;2023-02-14T04:21:12;98518.72;;;2.91;72.40
52361;BME280;38294;42.966;1.608;2023-02-14T04:23:37;98513.78;;;2.98;72.54
52361;BME280;38294;42.966;1.608;2023-02-14T04:26:03;98508.31;;;3.13;71.97
52361;BME280;38294;42.966;1.608;2023-02-14T04:28:29;98509.09;;;3.13;72.21
52361;BME280;38294;42.966;1.608;2023-02-14T04:30:55;98502.41;;;3.01;71.96
52361;BME280;38294;42.966;1.608;2023-02-14T04:33:20;98512.63;;;2.60;71.00
52361;BME280;38294;42.966;1.608;2023-02-14T04:35:47;98505.19;;;2.91;70.00
52361;BME280;38294;42.966;1.608;2023-02-14T04:38:13;98503.13;;;2.62;69.99
52361;BME280;38294;42.966;1.608;2023-02-14T04:40:38;98500.44;;;2.62;69.49
52361;BME280;38294;42.966;1.608;2023-02-14T04:43:04;98505.53;;;2.74;69.12
52361;BME280;38294;42.966;1.608;2023-02-14T04:45:31;98499.22;;;2.94;68.26
52361;BME280;38294;42.966;1.608;2023-02-14T04:47:57;98498.13;;;2.95;67.92
52361;BME280;38294;42.966;1.608;2023-02-14T04:50:23;98499.78;;;2.91;68.46
52361;BME280;38294;42.966;1.608;2023-02-14T04:52:50;98498.63;;;3.02;69.22
52361;BME280;38294;42.966;1.608;2023-02-14T04:55:16;98497.28;;;2.99;68.20
52361;BME280;38294;42.966;1.608;2023-02-14T04:57:42;98494.84;;;3.03;68.69
52361;BME280;38294;42.966;1.608;2023-02-14T05:00:08;98496.16;;;3.05;68.74
52361;BME280;38294;42.966;1.608;2023-02-14T05:02:34;98495.66;;;2.98;68.50
52361;BME280;38294;42.966;1.608;2023-02-14T05:04:59;98496.22;;;2.95;68.20
52361;BME280;38294;42.966;1.608;2023-02-14T05:07:25;98496.53;;;2.94;68.47
52361;BME280;38294;42.966;1.608;2023-02-14T05:09:50;98505.72;;;2.93;68.88
52361;BME280;38294;42.966;1.608;2023-02-14T05:12:16;98500.56;;;2.96;68.90
52361;BME280;38294;42.966;1.608;2023-02-14T05:14:42;98511.22;;;2.78;69.31
52361;BME280;38294;42.966;1.608;2023-02-14T05:17:07;98505.38;;;3.04;68.51
52361;BME280;38294;42.966;1.608;2023-02-14T05:19:33;98499.38;;;3.12;68.25
52361;BME280;38294;42.966;1.608;2023-02-14T05:21:58;98500.97;;;3.13;67.76
52361;BME280;38294;42.966;1.608;2023-02-14T05:24:24;98504.19;;;3.26;66.88
52361;BME280;38294;42.966;1.608;2023-02-14T05:26:49;98504.75;;;3.23;66.64
52361;BME280;38294;42.966;1.608;2023-02-14T05:29:15;98497.25;;;3.04;66.53
52361;BME280;38294;42.966;1.608;2023-02-14T05:31:40;98503.22;;;3.06;66.66
52361;BME280;38294;42.966;1.608;2023-02-14T05:34:06;98507.13;;;2.80;66.63
52361;BME280;38294;42.966;1.608;2023-02-14T05:36:31;98505.50;;;2.84;66.67
52361;BME280;38294;42.966;1.608;2023-02-14T05:38:57;98506.56;;;2.83;66.61
52361;BME280;38294;42.966;1.608;2023-02-14T05:41:22;98517.44;;;2.73;66.67
52361;BME280;38294;42.966;1.608;2023-02-14T05:43:48;98512.28;;;2.72;66.88
52361;BME280;38294;42.966;1.608;2023-02-14T05:46:13;98521.19;;;2.87;66.46
52361;BME280;38294;42.966;1.608;2023-02-14T05:48:39;98522.00;;;2.83;66.28
52361;BME280;38294;42.966;1.608;2023-02-14T05:51:07;98517.06;;;2.95;66.36
52361;BME280;38294;42.966;1.608;2023-02-14T05:53:33;98521.44;;;2.86;66.36
52361;BME280;38294;42.966;1.608;2023-02-14T05:55:59;98518.06;;;2.50;67.07
52361;BME280;38294;42.966;1.608;2023-02-14T05:58:25;98518.34;;;2.48;67.29
52361;BME280;38294;42.966;1.608;2023-02-14T06:00:50;98515.06;;;2.61;66.90
52361;BME280;38294;42.966;1.608;2023-02-14T06:03:16;98518.50;;;2.77;66.26
52361;BME280;38294;42.966;1.608;2023-02-14T06:05:41;98516.88;;;2.76;65.81
52361;BME280;38294;42.966;1.608;2023-02-14T06:08:07;98523.09;;;2.77;65.41
52361;BME280;38294;42.966;1.608;2023-02-14T06:10:33;98523.97;;;2.67;65.78
52361;BME280;38294;42.966;1.608;2023-02-14T06:12:58;98518.84;;;2.60;65.68
52361;BME280;38294;42.966;1.608;2023-02-14T06:15:25;98521.50;;;2.71;65.54
52361;BME280;38294;42.966;1.608;2023-02-14T06:17:54;98525.72;;;2.97;64.63
52361;BME280;38294;42.966;1.608;2023-02-14T06:20:21;98520.03;;;2.98;64.31
52361;BME280;38294;42.966;1.608;2023-02-14T06:22:49;98519.75;;;3.00;64.90
52361;BME280;38294;42.966;1.608;2023-02-14T06:25:15;98524.66;;;2.88;66.09
52361;BME280;38294;42.966;1.608;2023-02-14T06:27:40;98532.00;;;2.87;66.04
52361;BME280;38294;42.966;1.608;2023-02-14T06:30:07;98529.78;;;2.94;66.53
52361;BME280;38294;42.966;1.608;2023-02-14T06:32:33;98528.44;;;2.97;66.74
52361;BME280;38294;42.966;1.608;2023-02-14T06:34:59;98523.75;;;3.07;66.44
52361;BME280;38294;42.966;1.608;2023-02-14T06:37:25;98524.91;;;2.91;66.75
52361;BME280;38294;42.966;1.608;2023-02-14T06:39:50;98525.47;;;2.93;66.16
52361;BME280;38294;42.966;1.608;2023-02-14T06:42:16;98524.75;;;2.78;64.99
52361;BME280;38294;42.966;1.608;2023-02-14T06:44:41;98517.31;;;2.98;65.08
52361;BME280;38294;42.966;1.608;2023-02-14T06:47:07;98520.31;;;2.92;65.10
52361;BME280;38294;42.966;1.608;2023-02-14T06:49:33;98519.25;;;2.93;64.77
52361;BME280;38294;42.966;1.608;2023-02-14T06:51:58;98522.50;;;2.90;63.74
52361;BME280;38294;42.966;1.608;2023-02-14T06:54:24;98528.19;;;2.93;63.91
52361;BME280;38294;42.966;1.608;2023-02-14T06:56:49;98521.94;;;2.93;63.38
52361;BME280;38294;42.966;1.608;2023-02-14T06:59:15;98526.84;;;2.86;63.27
52361;BME280;38294;42.966;1.608;2023-02-14T07:01:41;98526.38;;;2.69;63.31
52361;BME280;38294;42.966;1.608;2023-02-14T07:04:06;98533.41;;;2.75;63.63
52361;BME280;38294;42.966;1.608;2023-02-14T07:06:35;98532.03;;;2.72;64.20
52361;BME280;38294;42.966;1.608;2023-02-14T07:09:01;98532.03;;;2.77;63.32
52361;BME280;38294;42.966;1.608;2023-02-14T07:11:26;98542.81;;;2.82;63.48
52361;BME280;38294;42.966;1.608;2023-02-14T07:13:52;98537.13;;;2.89;63.08
52361;BME280;38294;42.966;1.608;2023-02-14T07:16:18;98546.09;;;2.84;63.95
52361;BME280;38294;42.966;1.608;2023-02-14T07:18:44;98538.25;;;2.73;63.39
52361;BME280;38294;42.966;1.608;2023-02-14T07:21:09;98547.38;;;2.97;63.13
52361;BME280;38294;42.966;1.608;2023-02-14T07:23:35;98544.41;;;2.93;63.39
52361;BME280;38294;42.966;1.608;2023-02-14T07:26:00;98544.41;;;2.88;62.94
52361;BME280;38294;42.966;1.608;2023-02-14T07:28:26;98542.53;;;2.94;62.47
52361;BME280;38294;42.966;1.608;2023-02-14T07:30:52;98540.41;;;2.76;62.68
52361;BME280;38294;42.966;1.608;2023-02-14T07:33:17;98542.09;;;2.67;64.01
52361;BME280;38294;42.966;1.608;2023-02-14T07:35:43;98545.78;;;2.86;63.18
52361;BME280;38294;42.966;1.608;2023-02-14T07:38:09;98551.47;;;2.89;62.71
52361;BME280;38294;42.966;1.608;2023-02-14T07:40:34;98546.53;;;3.01;62.07
52361;BME280;38294;42.966;1.608;2023-02-14T07:43:00;98558.66;;;3.14;62.30
52361;BME280;38294;42.966;1.608;2023-02-14T07:45:26;98553.22;;;3.19;62.26
52361;BME280;38294;42.966;1.608;2023-02-14T07:47:53;98553.38;;;3.38;62.16
52361;BME280;38294;42.966;1.608;2023-02-14T07:50:20;98550.34;;;3.44;62.11
52361;BME280;38294;42.966;1.608;2023-02-14T07:52:46;98546.31;;;3.42;62.60
52361;BME280;38294;42.966;1.608;2023-02-14T07:55:12;98549.34;;;3.74;62.29
52361;BME280;38294;42.966;1.608;2023-02-14T07:57:38;98542.47;;;3.87;61.93
52361;BME280;38294;42.966;1.608;2023-02-14T08:00:04;98544.28;;;4.25;61.13
52361;BME280;38294;42.966;1.608;2023-02-14T08:02:30;98542.28;;;4.36;59.93
52361;BME280;38294;42.966;1.608;2023-02-14T08:04:56;98543.81;;;4.70;59.37
52361;BME280;38294;42.966;1.608;2023-02-14T08:07:21;98545.66;;;5.17;58.34
52361;BME280;38294;42.966;1.608;2023-02-14T08:09:47;98537.25;;;5.38;57.50
52361;BME280;38294;42.966;1.608;2023-02-14T08:12:12;98541.34;;;5.72;56.72
52361;BME280;38294;42.966;1.608;2023-02-14T08:14:56;98542.69;;;5.94;56.69
52361;BME280;38294;42.966;1.608;2023-02-14T08:17:42;98545.81;;;5.82;57.48
52361;BME280;38294;42.966;1.608;2023-02-14T08:20:08;98540.84;;;5.89;57.70
52361;BME280;38294;42.966;1.608;2023-02-14T08:22:33;98538.44;;;6.01;57.34
52361;BME280;38294;42.966;1.608;2023-02-14T08:24:59;98541.69;;;6.03;58.29
52361;BME280;38294;42.966;1.608;2023-02-14T08:27:24;98537.75;;;6.42;56.95
52361;BME280;38294;42.966;1.608;2023-02-14T08:29:50;98541.31;;;6.83;55.78
52361;BME280;38294;42.966;1.608;2023-02-14T08:32:15;98541.19;;;7.15;55.58
52361;BME280;38294;42.966;1.608;2023-02-14T08:34:45;98541.97;;;7.43;54.24
52361;BME280;38294;42.966;1.608;2023-02-14T08:37:11;98539.19;;;7.57;53.86
52361;BME280;38294;42.966;1.608;2023-02-14T08:39:37;98539.84;;;7.76;53.50
52361;BME280;38294;42.966;1.608;2023-02-14T08:42:03;98529.00;;;7.84;53.68
52361;BME280;38294;42.966;1.608;2023-02-14T08:44:29;98527.38;;;8.06;52.76
52361;BME280;38294;42.966;1.608;2023-02-14T08:46:55;98529.19;;;8.10;52.19
52361;BME280;38294;42.966;1.608;2023-02-14T08:49:20;98531.66;;;7.98;52.45
52361;BME280;38294;42.966;1.608;2023-02-14T08:51:46;98526.56;;;8.05;52.68
52361;BME280;38294;42.966;1.608;2023-02-14T08:54:11;98530.72;;;8.25;51.75
52361;BME280;38294;42.966;1.608;2023-02-14T08:56:37;98519.75;;;8.16;52.00
52361;BME280;38294;42.966;1.608;2023-02-14T08:59:03;98517.00;;;8.69;51.07
52361;BME280;38294;42.966;1.608;2023-02-14T09:01:28;98516.69;;;8.71;50.44
52361;BME280;38294;42.966;1.608;2023-02-14T09:03:54;98517.25;;;8.90;50.65
52361;BME280;38294;42.966;1.608;2023-02-14T09:06:21;98518.09;;;9.08;49.92
52361;BME280;38294;42.966;1.608;2023-02-14T09:08:46;98514.44;;;9.29;49.04
52361;BME280;38294;42.966;1.608;2023-02-14T09:11:18;98515.09;;;9.86;48.16
52361;BME280;38294;42.966;1.608;2023-02-14T09:13:47;98510.13;;;9.97;47.41
52361;BME280;38294;42.966;1.608;2023-02-14T09:16:14;98511.25;;;9.87;47.91
52361;BME280;38294;42.966;1.608;2023-02-14T09:18:44;98507.22;;;10.11;47.65
52361;BME280;38294;42.966;1.608;2023-02-14T09:21:12;98509.78;;;10.16;46.50
52361;BME280;38294;42.966;1.608;2023-02-14T09:23:37;98501.56;;;10.24;45.88
52361;BME280;38294;42.966;1.608;2023-02-14T09:26:06;98503.44;;;10.41;45.59
52361;BME280;38294;42.966;1.608;2023-02-14T09:28:32;98495.38;;;10.53;45.32
52361;BME280;38294;42.966;1.608;2023-02-14T09:30:58;98490.88;;;10.48;45.24
52361;BME280;38294;42.966;1.608;2023-02-14T09:33:31;98492.00;;;10.85;44.31
52361;BME280;38294;42.966;1.608;2023-02-14T09:36:16;98497.00;;;11.13;43.71
52361;BME280;38294;42.966;1.608;2023-02-14T09:39:00;98492.75;;;11.24;43.04
52361;BME280;38294;42.966;1.608;2023-02-14T09:46:45;98491.41;;;12.13;41.17
52361;BME280;38294;42.966;1.608;2023-02-14T09:49:14;98485.84;;;12.21;40.67
52361;BME280;38294;42.966;1.608;2023-02-14T09:51:46;98494.97;;;12.25;40.86
52361;BME280;38294;42.966;1.608;2023-02-14T09:54:20;98491.94;;;12.39;41.18
52361;BME280;38294;42.966;1.608;2023-02-14T09:56:55;98478.81;;;12.56;40.16
52361;BME280;38294;42.966;1.608;2023-02-14T10:06:20;98471.50;;;13.09;38.64
52361;BME280;38294;42.966;1.608;2023-02-14T10:09:18;98464.72;;;13.71;38.18
52361;BME280;38294;42.966;1.608;2023-02-14T10:11:46;98465.31;;;13.76;37.70
52361;BME280;38294;42.966;1.608;2023-02-14T10:14:19;98453.06;;;14.17;37.37
52361;BME280;38294;42.966;1.608;2023-02-14T10:16:51;98454.63;;;14.46;36.33
52361;BME280;38294;42.966;1.608;2023-02-14T10:19:37;98457.53;;;14.22;36.64
52361;BME280;38294;42.966;1.608;2023-02-14T10:22:13;98458.00;;;14.39;36.73
52361;BME280;38294;42.966;1.608;2023-02-14T10:30:21;98460.34;;;15.50;35.96
52361;BME280;38294;42.966;1.608;2023-02-14T10:32:51;98450.88;;;15.51;35.86
52361;BME280;38294;42.966;1.608;2023-02-14T10:54:56;98416.44;;;15.64;41.49
52361;BME280;38294;42.966;1.608;2023-02-14T10:57:37;98410.88;;;16.03;41.02
52361;BME280;38294;42.966;1.608;2023-02-14T11:00:30;98412.00;;;14.90;43.55
52361;BME280;38294;42.966;1.608;2023-02-14T11:02:59;98404.91;;;14.42;45.20
52361;BME280;38294;42.966;1.608;2023-02-14T11:05:41;98407.09;;;14.84;44.44
52361;BME280;38294;42.966;1.608;2023-02-14T11:08:25;98396.13;;;15.38;43.28
52361;BME280;38294;42.966;1.608;2023-02-14T11:10:54;98404.47;;;14.71;45.50
52361;BME280;38294;42.966;1.608;2023-02-14T11:13:35;98401.00;;;15.09;44.58
52361;BME280;38294;42.966;1.608;2023-02-14T11:16:04;98390.34;;;15.62;43.40
52361;BME280;38294;42.966;1.608;2023-02-14T11:18:32;98380.78;;;15.40;44.41
52361;BME280;38294;42.966;1.608;2023-02-14T11:21:14;98385.56;;;15.24;44.14
52361;BME280;38294;42.966;1.608;2023-02-14T11:23:49;98379.41;;;15.88;43.94
52361;BME280;38294;42.966;1.608;2023-02-14T11:26:25;98369.06;;;16.27;42.59
52361;BME280;38294;42.966;1.608;2023-02-14T11:29:02;98360.19;;;15.53;44.27
52361;BME280;38294;42.966;1.608;2023-02-14T11:31:36;98365.31;;;15.74;41.91
52361;BME280;38294;42.966;1.608;2023-02-14T11:34:05;98346.13;;;16.72;41.35
52361;BME280;38294;42.966;1.608;2023-02-14T11:36:39;98343.78;;;16.51;42.30
52361;BME280;38294;42.966;1.608;2023-02-14T11:39:17;98327.16;;;17.00;41.54
52361;BME280;38294;42.966;1.608;2023-02-14T11:41:51;98331.78;;;16.40;42.93
52361;BME280;38294;42.966;1.608;2023-02-14T11:44:25;98324.75;;;16.46;42.43
52361;BME280;38294;42.966;1.608;2023-02-14T11:46:53;98317.63;;;16.98;41.60
52361;BME280;38294;42.966;1.608;2023-02-14T11:49:33;98310.94;;;16.99;42.10
52361;BME280;38294;42.966;1.608;2023-02-14T11:52:08;98305.44;;;16.72;42.10
52361;BME280;38294;42.966;1.608;2023-02-14T11:54:36;98305.59;;;16.83;41.79
52361;BME280;38294;42.966;1.608;2023-02-14T11:57:11;98291.13;;;16.97;41.30
52361;BME280;38294;42.966;1.608;2023-02-14T11:59:44;98278.28;;;17.11;40.95
52361;BME280;38294;42.966;1.608;2023-02-14T12:04:40;98272.03;;;17.18;41.44
52361;BME280;38294;42.966;1.608;2023-02-14T12:07:12;98269.00;;;17.30;41.24
52361;BME280;38294;42.966;1.608;2023-02-14T12:09:38;98266.31;;;17.04;41.55
52361;BME280;38294;42.966;1.608;2023-02-14T12:12:20;98262.53;;;17.19;41.70
52361;BME280;38294;42.966;1.608;2023-02-14T12:14:48;98263.78;;;16.92;42.40
52361;BME280;38294;42.966;1.608;2023-02-14T12:17:30;98252.47;;;17.37;41.62
52361;BME280;38294;42.966;1.608;2023-02-14T12:20:07;98258.50;;;17.13;42.19
52361;BME280;38294;42.966;1.608;2023-02-14T12:23:00;98251.59;;;17.29;41.77
52361;BME280;38294;42.966;1.608;2023-02-14T12:28:47;98244.16;;;17.37;41.79
52361;BME280;38294;42.966;1.608;2023-02-14T12:31:14;98241.94;;;17.16;41.63
52361;BME280;38294;42.966;1.608;2023-02-14T12:33:40;98231.88;;;17.35;41.33
52361;BME280;38294;42.966;1.608;2023-02-14T12:41:38;98225.22;;;17.79;40.67
52361;BME280;38294;42.966;1.608;2023-02-14T12:50:19;98214.50;;;17.78;40.96
52361;BME280;38294;42.966;1.608;2023-02-14T13:01:39;98199.06;;;17.73;40.82
52361;BME280;38294;42.966;1.608;2023-02-14T13:04:37;98193.88;;;17.72;40.90
52361;BME280;38294;42.966;1.608;2023-02-14T13:09:57;98188.78;;;17.77;40.56
52361;BME280;38294;42.966;1.608;2023-02-14T13:12:34;98188.22;;;17.61;40.76
52361;BME280;38294;42.966;1.608;2023-02-14T13:15:14;98175.94;;;17.59;40.78
52361;BME280;38294;42.966;1.608;2023-02-14T13:18:13;98170.59;;;17.83;39.95
52361;BME280;38294;42.966;1.608;2023-02-14T13:20:50;98164.75;;;17.52;40.57
52361;BME280;38294;42.966;1.608;2023-02-14T13:28:55;98164.19;;;17.72;39.95
52361;BME280;38294;42.966;1.608;2023-02-14T13:31:22;98167.38;;;17.74;39.59
52361;BME280;38294;42.966;1.608;2023-02-14T13:36:47;98155.28;;;18.00;39.25
52361;BME280;38294;42.966;1.608;2023-02-14T13:39:24;98164.22;;;17.76;39.37
52361;BME280;38294;42.966;1.608;2023-02-14T13:41:49;98156.34;;;17.81;39.11
52361;BME280;38294;42.966;1.608;2023-02-14T13:47:06;98141.47;;;18.07;38.70
52361;BME280;38294;42.966;1.608;2023-02-14T13:49:34;98139.31;;;18.38;38.37
52361;BME280;38294;42.966;1.608;2023-02-14T13:52:04;98128.84;;;18.13;38.85
52361;BME280;38294;42.966;1.608;2023-02-14T13:54:33;98133.59;;;18.13;38.98
52361;BME280;38294;42.966;1.608;2023-02-14T13:57:03;98130.22;;;18.44;38.26
52361;BME280;38294;42.966;1.608;2023-02-14T14:02:51;98127.66;;;18.11;38.88
52361;BME280;38294;42.966;1.608;2023-02-14T14:05:47;98114.03;;;18.53;38.47
52361;BME280;38294;42.966;1.608;2023-02-14T14:10:55;98113.94;;;18.39;38.66
52361;BME280;38294;42.966;1.608;2023-02-14T14:18:47;98102.63;;;18.00;39.52
52361;BME280;38294;42.966;1.608;2023-02-14T14:21:15;98096.84;;;18.30;39.13
52361;BME280;38294;42.966;1.608;2023-02-14T14:24:16;98095.69;;;18.31;39.19
52361;BME280;38294;42.966;1.608;2023-02-14T14:26:48;98102.47;;;18.41;38.90
52361;BME280;38294;42.966;1.608;2023-02-14T14:29:23;98093.72;;;18.35;39.21
52361;BME280;38294;42.966;1.608;2023-02-14T14:31:50;98098.00;;;18.22;38.76
52361;BME280;38294;42.966;1.608;2023-02-14T14:34:22;98091.91;;;17.95;39.71
52361;BME280;38294;42.966;1.608;2023-02-14T14:37:35;98103.25;;;17.76;39.96
52361;BME280;38294;42.966;1.608;2023-02-14T14:39:35;98096.88;;;17.72;40.08
52361;BME280;38294;42.966;1.608;2023-02-14T14:42:06;98085.66;;;18.09;39.78
52361;BME280;38294;42.966;1.608;2023-02-14T14:44:34;98070.72;;;18.34;39.32
52361;BME280;38294;42.966;1.608;2023-02-14T14:47:01;98088.81;;;18.07;39.34
52361;BME280;38294;42.966;1.608;2023-02-14T14:49:27;98083.13;;;17.86;39.80
52361;BME280;38294;42.966;1.608;2023-02-14T14:51:54;98076.09;;;17.99;39.49
52361;BME280;38294;42.966;1.608;2023-02-14T14:54:20;98082.19;;;17.64;40.24
52361;BME280;38294;42.966;1.608;2023-02-14T14:56:53;98081.47;;;17.74;40.04
52361;BME280;38294;42.966;1.608;2023-02-14T15:01:47;98094.78;;;17.58;40.47
52361;BME280;38294;42.966;1.608;2023-02-14T15:04:19;98078.56;;;17.57;40.63
52361;BME280;38294;42.966;1.608;2023-02-14T15:06:49;98074.38;;;17.77;40.04
52361;BME280;38294;42.966;1.608;2023-02-14T15:09:19;98072.28;;;17.63;40.60
52361;BME280;38294;42.966;1.608;2023-02-14T15:11:46;98071.75;;;17.47;41.02
52361;BME280;38294;42.966;1.608;2023-02-14T15:14:39;98077.09;;;17.70;40.84
52361;BME280;38294;42.966;1.608;2023-02-14T15:17:14;98070.88;;;17.91;40.59
52361;BME280;38294;42.966;1.608;2023-02-14T15:19:46;98066.75;;;17.63;41.01
52361;BME280;38294;42.966;1.608;2023-02-14T15:24:47;98073.28;;;17.92;40.18
52361;BME280;38294;42.966;1.608;2023-02-14T15:27:16;98070.66;;;18.20;39.86
52361;BME280;38294;42.966;1.608;2023-02-14T15:29:53;98073.13;;;18.43;39.35
52361;BME280;38294;42.966;1.608;2023-02-14T15:32:19;98069.59;;;17.70;40.44
52361;BME280;38294;42.966;1.608;2023-02-14T15:34:45;98072.25;;;17.56;41.03
52361;BME280;38294;42.966;1.608;2023-02-14T15:37:12;98078.31;;;17.76;40.63
52361;BME280;38294;42.966;1.608;2023-02-14T15:39:41;98069.41;;;17.53;41.42
52361;BME280;38294;42.966;1.608;2023-02-14T15:42:31;98073.16;;;17.74;40.74
52361;BME280;38294;42.966;1.608;2023-02-14T15:47:51;98070.31;;;17.64;41.30
52361;BME280;38294;42.966;1.608;2023-02-14T15:50:32;98062.78;;;17.64;41.84
52361;BME280;38294;42.966;1.608;2023-02-14T15:55:43;98062.16;;;16.94;46.26
52361;BME280;38294;42.966;1.608;2023-02-14T15:58:27;98071.22;;;16.91;47.34
52361;BME280;38294;42.966;1.608;2023-02-14T16:00:55;98069.72;;;16.30;48.86
52361;BME280;38294;42.966;1.608;2023-02-14T16:03:23;98073.94;;;16.20;49.78
52361;BME280;38294;42.966;1.608;2023-02-14T16:05:50;98065.00;;;16.31;49.07
52361;BME280;38294;42.966;1.608;2023-02-14T16:11:12;98061.00;;;15.98;51.38
52361;BME280;38294;42.966;1.608;2023-02-14T16:13:41;98062.69;;;15.77;52.35
52361;BME280;38294;42.966;1.608;2023-02-14T16:16:12;98069.59;;;15.63;52.37
52361;BME280;38294;42.966;1.608;2023-02-14T16:18:44;98062.00;;;15.34;52.98
52361;BME280;38294;42.966;1.608;2023-02-14T16:21:15;98064.84;;;15.41;53.35
52361;BME280;38294;42.966;1.608;2023-02-14T16:23:43;98076.97;;;15.33;53.18
52361;BME280;38294;42.966;1.608;2023-02-14T16:26:09;98069.03;;;15.54;52.58
52361;BME280;38294;42.966;1.608;2023-02-14T16:28:35;98073.22;;;15.22;52.85
52361;BME280;38294;42.966;1.608;2023-02-14T16:31:02;98073.66;;;15.47;52.94
52361;BME280;38294;42.966;1.608;2023-02-14T16:33:34;98073.06;;;15.34;53.22
52361;BME280;38294;42.966;1.608;2023-02-14T16:36:23;98080.59;;;15.37;53.31
52361;BME280;38294;42.966;1.608;2023-02-14T16:38:50;98081.63;;;15.06;54.21
52361;BME280;38294;42.966;1.608;2023-02-14T16:41:24;98084.31;;;15.25;54.27
52361;BME280;38294;42.966;1.608;2023-02-14T16:43:52;98077.97;;;14.99;54.71
52361;BME280;38294;42.966;1.608;2023-02-14T16:46:21;98085.25;;;15.10;54.23
52361;BME280;38294;42.966;1.608;2023-02-14T16:48:47;98081.78;;;14.71;55.24
52361;BME280;38294;42.966;1.608;2023-02-14T16:51:18;98077.91;;;14.53;56.50
52361;BME280;38294;42.966;1.608;2023-02-14T16:53:44;98085.38;;;14.34;56.95
52361;BME280;38294;42.966;1.608;2023-02-14T16:56:19;98092.47;;;14.73;56.21
52361;BME280;38294;42.966;1.608;2023-02-14T16:58:46;98096.06;;;14.19;57.90
52361;BME280;38294;42.966;1.608;2023-02-14T17:01:12;98098.44;;;14.02;57.88
52361;BME280;38294;42.966;1.608;2023-02-14T17:03:37;98082.44;;;14.65;56.24
52361;BME280;38294;42.966;1.608;2023-02-14T17:06:04;98106.72;;;14.02;58.23
52361;BME280;38294;42.966;1.608;2023-02-14T17:08:32;98103.06;;;13.98;59.00
52361;BME280;38294;42.966;1.608;2023-02-14T17:10:58;98105.06;;;13.47;60.31
52361;BME280;38294;42.966;1.608;2023-02-14T17:13:26;98117.69;;;13.83;59.51
52361;BME280;38294;42.966;1.608;2023-02-14T17:15:53;98104.03;;;13.71;60.06
52361;BME280;38294;42.966;1.608;2023-02-14T17:18:21;98115.50;;;13.41;61.38
52361;BME280;38294;42.966;1.608;2023-02-14T17:20:48;98109.84;;;13.34;61.49
52361;BME280;38294;42.966;1.608;2023-02-14T17:23:13;98107.03;;;13.03;62.55
52361;BME280;38294;42.966;1.608;2023-02-14T17:25:39;98102.75;;;13.18;62.19
52361;BME280;38294;42.966;1.608;2023-02-14T17:28:05;98100.91;;;12.94;62.66
52361;BME280;38294;42.966;1.608;2023-02-14T17:30:31;98101.06;;;12.70;63.84
52361;BME280;38294;42.966;1.608;2023-02-14T17:32:56;98107.00;;;12.72;63.91
52361;BME280;38294;42.966;1.608;2023-02-14T17:35:22;98102.81;;;12.62;64.68
52361;BME280;38294;42.966;1.608;2023-02-14T17:37:47;98104.47;;;12.94;63.63
52361;BME280;38294;42.966;1.608;2023-02-14T17:40:13;98106.66;;;13.17;62.72
52361;BME280;38294;42.966;1.608;2023-02-14T17:42:39;98116.34;;;12.55;65.24
52361;BME280;38294;42.966;1.608;2023-02-14T17:45:06;98108.13;;;12.98;63.79
52361;BME280;38294;42.966;1.608;2023-02-14T17:47:33;98112.53;;;12.44;65.70
52361;BME280;38294;42.966;1.608;2023-02-14T17:49:59;98113.78;;;12.34;65.58
52361;BME280;38294;42.966;1.608;2023-02-14T17:52:25;98109.34;;;12.57;65.10
52361;BME280;38294;42.966;1.608;2023-02-14T17:54:53;98092.28;;;12.80;64.09
52361;BME280;38294;42.966;1.608;2023-02-14T17:57:19;98103.25;;;12.64;64.14
52361;BME280;38294;42.966;1.608;2023-02-14T17:59:45;98097.84;;;12.68;64.45
52361;BME280;38294;42.966;1.608;2023-02-14T18:02:11;98103.00;;;12.69;64.87
52361;BME280;38294;42.966;1.608;2023-02-14T18:04:37;98105.16;;;12.76;64.12
52361;BME280;38294;42.966;1.608;2023-02-14T18:07:04;98108.72;;;12.76;64.45
52361;BME280;38294;42.966;1.608;2023-02-14T18:09:30;98119.69;;;12.48;65.12
52361;BME280;38294;42.966;1.608;2023-02-14T18:11:56;98116.13;;;12.60;65.01
52361;BME280;38294;42.966;1.608;2023-02-14T18:14:22;98113.66;;;12.43;65.13
52361;BME280;38294;42.966;1.608;2023-02-14T18:16:48;98110.56;;;12.88;63.53
52361;BME280;38294;42.966;1.608;2023-02-14T18:19:14;98113.72;;;13.02;63.19
52361;BME280;38294;42.966;1.608;2023-02-14T18:21:42;98113.34;;;13.03;63.23
52361;BME280;38294;42.966;1.608;2023-02-14T18:24:09;98128.22;;;12.31;64.95
52361;BME280;38294;42.966;1.608;2023-02-14T18:26:36;98120.78;;;12.87;62.79
52361;BME280;38294;42.966;1.608;2023-02-14T18:29:02;98127.31;;;13.10;61.56
52361;BME280;38294;42.966;1.608;2023-02-14T18:31:35;98124.44;;;12.91;62.06
52361;BME280;38294;42.966;1.608;2023-02-14T18:34:02;98131.00;;;12.59;62.43
52361;BME280;38294;42.966;1.608;2023-02-14T18:36:28;98116.00;;;13.00;60.20
52361;BME280;38294;42.966;1.608;2023-02-14T18:38:54;98115.47;;;12.67;60.27
52361;BME280;38294;42.966;1.608;2023-02-14T18:41:21;98116.88;;;12.60;61.11
52361;BME280;38294;42.966;1.608;2023-02-14T18:43:48;98123.72;;;12.67;61.06
52361;BME280;38294;42.966;1.608;2023-02-14T18:46:19;98116.09;;;12.32;62.41
52361;BME280;38294;42.966;1.608;2023-02-14T18:48:45;98119.84;;;12.00;62.56
52361;BME280;38294;42.966;1.608;2023-02-14T18:51:14;98112.16;;;12.18;62.87
52361;BME280;38294;42.966;1.608;2023-02-14T18:53:42;98115.28;;;12.04;63.27
52361;BME280;38294;42.966;1.608;2023-02-14T18:56:13;98114.47;;;12.03;62.11
52361;BME280;38294;42.966;1.608;2023-02-14T18:58:41;98110.38;;;12.25;61.22
52361;BME280;38294;42.966;1.608;2023-02-14T19:01:15;98114.50;;;12.31;60.53